Time;durP1;ratioP1;P1;durP2;ratioP2;P2;SDS_P1;SDS_P2;PMS_P1;PMS_P2;Temp;Humidity;BMP_temperature;BMP_pressure;BME280_temperature;BME280_humidity;BME280_pressure;Samples;Min_cycle;Max_cycle;Signal;HPM_P1;HPM_P2
2023/12/05 00:00:06;;;;;;;6.57;2.90;;;4.00;99.90;;;;;;5066625;28;20186;-75
2023/12/05 00:02:32;;;;;;;3.73;2.90;;;4.10;99.90;;;;;;5067925;28;20198;-75
2023/12/05 00:04:57;;;;;;;4.10;2.43;;;4.10;99.90;;;;;;5049500;28;20818;-75
2023/12/05 00:07:25;;;;;;;2.30;2.07;;;4.10;99.90;;;;;;5066415;28;20254;-74
2023/12/05 00:09:51;;;;;;;2.07;1.70;;;4.20;99.90;;;;;;5066468;28;20190;-74
2023/12/05 00:12:16;;;;;;;2.30;1.47;;;4.30;99.90;;;;;;5067750;28;20478;-74
2023/12/05 00:14:42;;;;;;;2.87;2.30;;;4.30;99.90;;;;;;5067971;28;20420;-74
2023/12/05 00:17:08;;;;;;;2.90;2.17;;;4.40;99.90;;;;;;5067878;28;20255;-74
2023/12/05 00:19:33;;;;;;;2.00;1.90;;;4.30;99.90;;;;;;5067395;28;20252;-74
2023/12/05 00:21:59;;;;;;;2.33;1.67;;;4.30;99.90;;;;;;5071287;28;20190;-73
2023/12/05 00:24:25;;;;;;;2.37;1.97;;;4.40;99.90;;;;;;5069657;28;20247;-74
2023/12/05 00:26:50;;;;;;;2.57;2.20;;;4.40;99.90;;;;;;5069809;28;20600;-74
2023/12/05 00:29:16;;;;;;;2.00;1.80;;;4.30;99.90;;;;;;5069766;28;20186;-74
2023/12/05 00:31:42;;;;;;;2.70;2.20;;;4.40;99.90;;;;;;5069840;28;20190;-74
2023/12/05 00:34:08;;;;;;;1.60;1.50;;;4.40;99.90;;;;;;5069589;28;20921;-74
2023/12/05 00:36:34;;;;;;;2.20;2.00;;;4.40;99.90;;;;;;5069206;28;20472;-75
2023/12/05 00:38:59;;;;;;;2.07;1.77;;;4.40;99.90;;;;;;5070878;28;20183;-74
2023/12/05 00:41:25;;;;;;;2.03;1.90;;;4.40;99.90;;;;;;5069313;28;20190;-75
2023/12/05 00:43:51;;;;;;;1.80;1.70;;;4.40;99.90;;;;;;5052741;28;20224;-75
2023/12/05 00:46:18;;;;;;;3.10;1.80;;;4.50;99.90;;;;;;5070666;28;20309;-75
2023/12/05 00:48:43;;;;;;;2.10;2.00;;;4.40;99.90;;;;;;5069942;28;20440;-75
2023/12/05 00:51:09;;;;;;;1.67;1.53;;;4.40;99.90;;;;;;5071238;28;20434;-75
2023/12/05 00:53:35;;;;;;;1.97;1.50;;;4.40;99.90;;;;;;5071196;28;20193;-75
2023/12/05 00:56:01;;;;;;;2.17;1.97;;;4.50;99.90;;;;;;5069507;28;20690;-75
2023/12/05 00:58:27;;;;;;;2.10;2.00;;;4.50;99.90;;;;;;5071008;28;20522;-74
2023/12/05 01:00:52;;;;;;;2.13;1.90;;;4.50;99.90;;;;;;5070905;28;20239;-76
2023/12/05 01:03:18;;;;;;;3.17;1.60;;;4.50;99.90;;;;;;5071028;28;20190;-75
2023/12/05 01:05:44;;;;;;;2.40;2.20;;;4.50;99.90;;;;;;5069601;28;20287;-75
2023/12/05 01:08:10;;;;;;;1.63;1.53;;;4.50;99.90;;;;;;5069961;28;20439;-75
2023/12/05 01:10:35;;;;;;;1.87;1.77;;;4.50;99.90;;;;;;5071068;28;20212;-74
2023/12/05 01:13:02;;;;;;;2.73;2.53;;;4.50;99.90;;;;;;5071203;28;20190;-74
2023/12/05 01:15:28;;;;;;;1.90;1.77;;;4.50;99.90;;;;;;5070848;28;20210;-74
2023/12/05 01:17:54;;;;;;;2.67;2.43;;;4.50;99.90;;;;;;5070917;28;20476;-75
2023/12/05 01:20:20;;;;;;;3.00;1.90;;;4.50;99.90;;;;;;5069382;28;20429;-74
2023/12/05 01:22:46;;;;;;;2.30;1.90;;;4.50;99.90;;;;;;5069309;28;20190;-75
2023/12/05 01:25:11;;;;;;;2.90;2.40;;;4.50;99.90;;;;;;5070018;28;20421;-76
2023/12/05 01:27:37;;;;;;;2.27;2.07;;;4.60;99.90;;;;;;5068730;28;20194;-76
2023/12/05 01:30:04;;;;;;;2.60;2.30;;;4.60;99.90;;;;;;5068602;28;20185;-75
2023/12/05 01:32:30;;;;;;;2.07;1.87;;;4.70;99.90;;;;;;5068601;28;20190;-75
2023/12/05 01:34:56;;;;;;;2.30;2.10;;;4.70;99.90;;;;;;5069761;28;20435;-75
2023/12/05 01:37:23;;;;;;;2.53;1.97;;;4.70;99.90;;;;;;5070052;28;20242;-76
2023/12/05 01:39:48;;;;;;;2.73;2.30;;;4.60;99.90;;;;;;5068242;28;20471;-75
2023/12/05 01:42:14;;;;;;;1.70;1.57;;;4.70;99.90;;;;;;5068451;28;20433;-75
2023/12/05 01:44:39;;;;;;;3.03;2.20;;;4.70;99.90;;;;;;5069905;28;20211;-75
2023/12/05 01:47:06;;;;;;;2.90;2.00;;;4.80;99.90;;;;;;5051574;28;20843;-75
2023/12/05 01:49:33;;;;;;;1.97;1.77;;;4.90;99.90;;;;;;5068060;28;20841;-76
2023/12/05 01:52:00;;;;;;;1.43;1.33;;;4.80;99.90;;;;;;5069552;28;20424;-75
2023/12/05 01:54:27;;;;;;;2.03;1.80;;;4.80;99.90;;;;;;5067844;28;20954;-76
2023/12/05 01:56:55;;;;;;;2.20;2.03;;;4.70;99.90;;;;;;5051901;28;20560;-75
2023/12/05 01:59:22;;;;;;;2.73;1.97;;;4.80;99.90;;;;;;5052053;28;20493;-76
2023/12/05 02:01:49;;;;;;;2.77;2.33;;;4.80;99.90;;;;;;5069960;28;20880;-75
2023/12/05 02:04:15;;;;;;;2.50;2.10;;;4.80;99.90;;;;;;5069328;28;20503;-75
2023/12/05 02:06:41;;;;;;;2.00;1.90;;;4.80;99.90;;;;;;5068318;28;20488;-75
2023/12/05 02:09:09;;;;;;;3.10;2.40;;;4.70;99.90;;;;;;5069450;28;20912;-74
2023/12/05 02:11:36;;;;;;;2.73;2.27;;;4.60;99.90;;;;;;5068610;28;20203;-76
2023/12/05 02:14:04;;;;;;;3.20;2.60;;;4.70;99.90;;;;;;5069388;28;21162;-76
2023/12/05 02:16:55;;;;;;;4.30;2.50;;;4.80;99.90;;;;;;5069057;28;20989;-76
2023/12/05 02:20:00;;;;;;;2.40;2.10;;;4.70;99.90;;;;;;5069179;28;20421;-75
2023/12/05 02:23:07;;;;;;;3.28;2.15;;;4.70;99.90;;;;;;5014174;28;20474;-76
2023/12/05 02:25:57;;;;;;;2.63;2.43;;;4.70;99.90;;;;;;5069082;28;20737;-76
2023/12/05 02:28:24;;;;;;;2.60;2.40;;;4.60;99.90;;;;;;5069085;28;20420;-75
2023/12/05 02:30:50;;;;;;;2.53;2.33;;;4.70;99.90;;;;;;5067734;28;20424;-75
2023/12/05 02:33:15;;;;;;;3.60;2.90;;;4.70;99.90;;;;;;5068088;28;20413;-75
2023/12/05 02:35:42;;;;;;;2.70;2.30;;;4.70;99.90;;;;;;5068080;28;20463;-75
2023/12/05 02:38:33;;;;;;;3.87;2.57;;;4.70;99.90;;;;;;5068292;28;20202;-75
2023/12/05 02:41:11;;;;;;;2.30;2.10;;;4.70;99.90;;;;;;5069577;28;20513;-77
2023/12/05 02:43:51;;;;;;;3.13;2.87;;;4.60;99.90;;;;;;5067914;28;20431;-76
2023/12/05 02:46:18;;;;;;;3.20;2.90;;;4.60;99.90;;;;;;5068006;28;20445;-76
2023/12/05 02:48:44;;;;;;;3.37;3.07;;;4.60;99.90;;;;;;5068128;28;20800;-76
2023/12/05 02:51:11;;;;;;;4.30;3.40;;;4.40;99.90;;;;;;5069561;28;20418;-77
2023/12/05 02:53:37;;;;;;;5.47;2.20;;;4.40;99.90;;;;;;5069463;28;20440;-76
2023/12/05 02:56:03;;;;;;;3.40;3.10;;;4.40;99.90;;;;;;5067647;28;20558;-76
2023/12/05 02:58:29;;;;;;;3.47;2.50;;;4.50;99.90;;;;;;5067837;28;20583;-75
2023/12/05 03:00:54;;;;;;;5.00;3.27;;;4.50;99.90;;;;;;5067787;28;20273;-75
2023/12/05 03:03:20;;;;;;;2.97;2.20;;;4.50;99.90;;;;;;5051188;28;20422;-75
2023/12/05 03:05:45;;;;;;;3.40;3.10;;;4.40;99.90;;;;;;5068476;28;20288;-75
2023/12/05 03:08:11;;;;;;;2.70;2.50;;;4.40;99.90;;;;;;5050502;28;20190;-75
2023/12/05 03:10:37;;;;;;;3.33;3.03;;;4.40;99.90;;;;;;5050187;28;20182;-75
2023/12/05 03:13:02;;;;;;;7.23;3.60;;;4.40;99.90;;;;;;5068272;28;20570;-76
2023/12/05 03:15:28;;;;;;;3.47;3.10;;;4.40;99.90;;;;;;5068084;28;20233;-75
2023/12/05 03:17:53;;;;;;;4.07;2.83;;;4.40;99.90;;;;;;5067079;28;20193;-75
2023/12/05 03:20:19;;;;;;;5.10;2.90;;;4.30;99.90;;;;;;5068257;28;20410;-75
2023/12/05 03:22:45;;;;;;;3.20;2.90;;;4.30;99.90;;;;;;5066476;28;20179;-75
2023/12/05 03:25:11;;;;;;;3.67;2.90;;;4.20;99.90;;;;;;5067984;28;20186;-75
2023/12/05 03:27:37;;;;;;;3.33;2.40;;;4.30;99.90;;;;;;5068002;28;20423;-75
2023/12/05 03:30:03;;;;;;;2.50;2.30;;;4.20;99.90;;;;;;5066522;28;20570;-76
2023/12/05 03:32:29;;;;;;;3.50;3.17;;;4.30;99.90;;;;;;5067992;28;20663;-75
2023/12/05 03:34:54;;;;;;;3.50;2.70;;;4.30;99.90;;;;;;5066666;28;20427;-76
2023/12/05 03:37:20;;;;;;;2.90;2.57;;;4.30;99.90;;;;;;5068538;28;20262;-76
2023/12/05 03:39:45;;;;;;;2.63;2.43;;;4.30;99.90;;;;;;5067811;28;20902;-76
2023/12/05 03:42:11;;;;;;;3.13;2.33;;;4.40;99.90;;;;;;5068261;28;20243;-76
2023/12/05 03:44:36;;;;;;;2.97;1.67;;;4.40;99.90;;;;;;5067314;28;20186;-76
2023/12/05 03:47:02;;;;;;;3.30;2.87;;;4.50;99.90;;;;;;5068895;28;20218;-75
2023/12/05 03:49:29;;;;;;;2.50;2.30;;;4.50;99.90;;;;;;5068779;28;20200;-75
2023/12/05 03:51:54;;;;;;;2.00;1.90;;;4.50;99.90;;;;;;5066667;28;20199;-75
2023/12/05 03:54:20;;;;;;;2.73;2.30;;;4.60;99.90;;;;;;5068730;28;20446;-76
2023/12/05 03:56:46;;;;;;;2.00;1.87;;;4.60;99.90;;;;;;5072009;28;20719;-75
2023/12/05 03:59:12;;;;;;;3.50;2.43;;;4.60;99.90;;;;;;5070421;28;20421;-75
2023/12/05 04:01:37;;;;;;;2.17;1.97;;;4.70;99.90;;;;;;5072019;28;20495;-75
2023/12/05 04:04:03;;;;;;;3.20;1.90;;;4.70;99.90;;;;;;5070619;28;20187;-75
2023/12/05 04:06:28;;;;;;;2.13;1.87;;;4.70;99.90;;;;;;5071918;28;20259;-76
2023/12/05 04:08:54;;;;;;;2.83;2.43;;;4.80;99.90;;;;;;5070761;28;20201;-75
2023/12/05 04:11:30;;;;;;;2.30;1.47;;;4.70;99.90;;;;;;5070501;28;20206;-75
2023/12/05 04:13:56;;;;;;;1.70;1.60;;;4.60;99.90;;;;;;5070315;28;20302;-76
2023/12/05 04:16:22;;;;;;;2.00;1.50;;;4.70;99.90;;;;;;5071756;28;20555;-76
2023/12/05 04:18:48;;;;;;;1.73;1.43;;;4.70;99.90;;;;;;5071759;28;21010;-75
2023/12/05 04:21:13;;;;;;;1.50;1.40;;;4.70;99.90;;;;;;5069982;28;20417;-75
2023/12/05 04:23:40;;;;;;;1.67;1.57;;;4.70;99.90;;;;;;5070239;28;20648;-76
2023/12/05 04:26:06;;;;;;;1.93;1.73;;;4.80;99.90;;;;;;5071382;28;20207;-76
2023/12/05 04:28:32;;;;;;;1.83;1.63;;;4.80;99.90;;;;;;5071854;28;20853;-76
2023/12/05 04:30:58;;;;;;;1.90;1.53;;;4.80;99.90;;;;;;5071323;28;20429;-77
2023/12/05 04:33:23;;;;;;;2.13;1.70;;;4.80;99.90;;;;;;5069881;28;20495;-76
2023/12/05 04:35:49;;;;;;;3.47;2.20;;;4.80;99.90;;;;;;5069680;28;20240;-76
2023/12/05 04:38:15;;;;;;;2.00;1.90;;;4.70;99.90;;;;;;5071188;28;20197;-76
2023/12/05 04:40:41;;;;;;;2.40;1.73;;;4.60;99.90;;;;;;5069851;28;20179;-77
2023/12/05 04:43:06;;;;;;;1.90;1.80;;;4.60;99.90;;;;;;5071447;28;20478;-76
2023/12/05 04:45:32;;;;;;;2.17;1.83;;;4.60;99.90;;;;;;5071174;28;20213;-76
2023/12/05 04:47:57;;;;;;;3.00;2.30;;;4.60;99.90;;;;;;5069570;28;20214;-76
2023/12/05 04:50:23;;;;;;;2.30;2.20;;;4.60;99.90;;;;;;5052799;28;20243;-77
2023/12/05 04:52:49;;;;;;;3.47;1.63;;;4.50;99.90;;;;;;5070997;28;20223;-76
2023/12/05 04:55:14;;;;;;;2.27;2.00;;;4.50;99.90;;;;;;5052525;28;20252;-76
2023/12/05 04:57:40;;;;;;;2.23;1.90;;;4.50;99.90;;;;;;5070834;28;20211;-76
2023/12/05 05:00:08;;;;;;;2.10;2.00;;;4.50;99.90;;;;;;5070658;28;20199;-76
2023/12/05 05:02:34;;;;;;;2.40;2.20;;;4.50;99.90;;;;;;5069450;28;20183;-76
2023/12/05 05:04:59;;;;;;;2.60;1.93;;;4.50;99.90;;;;;;5068659;28;20946;-76
2023/12/05 05:07:25;;;;;;;1.77;1.67;;;4.50;99.90;;;;;;5068635;28;20243;-77
2023/12/05 05:09:51;;;;;;;2.17;2.07;;;4.60;99.90;;;;;;5069563;28;20202;-76
2023/12/05 05:12:17;;;;;;;5.17;2.00;;;4.60;99.90;;;;;;5067726;28;20255;-76
2023/12/05 05:14:43;;;;;;;3.10;2.00;;;4.60;99.90;;;;;;5050645;28;20429;-76
2023/12/05 05:17:09;;;;;;;1.83;1.63;;;4.60;99.90;;;;;;5067186;28;20221;-77
2023/12/05 05:19:35;;;;;;;2.57;1.63;;;4.50;99.90;;;;;;5034041;28;20429;-76
2023/12/05 05:22:00;;;;;;;3.83;2.60;;;4.50;99.90;;;;;;5068917;28;20714;-76
2023/12/05 05:24:26;;;;;;;2.10;1.80;;;4.50;99.90;;;;;;5068819;28;20183;-76
2023/12/05 05:26:51;;;;;;;7.07;2.93;;;4.50;99.90;;;;;;5068678;28;20264;-76
2023/12/05 05:29:17;;;;;;;2.43;2.23;;;4.30;99.90;;;;;;5067324;28;20236;-76
2023/12/05 05:31:43;;;;;;;3.70;2.67;;;4.30;99.90;;;;;;5050687;28;20194;-74
2023/12/05 05:34:08;;;;;;;3.00;2.30;;;4.30;99.90;;;;;;5068597;28;20212;-76
2023/12/05 05:36:34;;;;;;;2.17;2.00;;;4.30;99.90;;;;;;5069076;28;20222;-76
2023/12/05 05:39:00;;;;;;;2.10;1.90;;;4.30;99.90;;;;;;5067751;28;20184;-76
2023/12/05 05:41:26;;;;;;;4.23;2.30;;;4.40;99.90;;;;;;5067243;28;20611;-75
2023/12/05 05:43:52;;;;;;;2.33;2.13;;;4.40;99.90;;;;;;5067350;28;20474;-76
2023/12/05 05:46:17;;;;;;;2.10;1.90;;;4.40;99.90;;;;;;5068415;28;20441;-75
2023/12/05 05:48:43;;;;;;;5.20;2.10;;;4.40;99.90;;;;;;5066994;28;20194;-75
2023/12/05 05:51:09;;;;;;;2.67;1.77;;;4.40;99.90;;;;;;5067169;28;20360;-75
2023/12/05 05:53:35;;;;;;;1.67;1.50;;;4.40;99.90;;;;;;5068494;28;20972;-76
2023/12/05 05:56:00;;;;;;;2.63;1.90;;;4.50;99.90;;;;;;5068280;28;20480;-75
2023/12/05 05:58:27;;;;;;;3.43;1.60;;;4.50;99.90;;;;;;5069863;28;20179;-75
2023/12/05 06:00:52;;;;;;;2.90;1.90;;;4.40;99.90;;;;;;5069168;28;20427;-75
2023/12/05 06:03:18;;;;;;;8.83;2.37;;;4.50;99.90;;;;;;5068756;28;20422;-75
2023/12/05 06:05:44;;;;;;;3.70;1.50;;;4.50;99.90;;;;;;5067158;28;20209;-75
2023/12/05 06:08:09;;;;;;;4.00;1.70;;;4.40;99.90;;;;;;5068980;28;20187;-75
2023/12/05 06:10:37;;;;;;;4.13;1.60;;;4.40;99.90;;;;;;5069368;28;20179;-75
2023/12/05 06:13:03;;;;;;;1.60;1.50;;;4.50;99.90;;;;;;5067247;28;20193;-75
2023/12/05 06:15:29;;;;;;;1.60;1.50;;;4.50;99.90;;;;;;5067646;28;21102;-74
2023/12/05 06:17:56;;;;;;;3.57;1.40;;;4.50;99.90;;;;;;5033785;28;20225;-75
2023/12/05 06:20:22;;;;;;;2.43;1.33;;;4.50;99.90;;;;;;5068110;28;20525;-75
2023/12/05 06:22:48;;;;;;;2.03;1.93;;;4.50;99.90;;;;;;5066363;28;20420;-75
2023/12/05 06:25:14;;;;;;;1.87;1.50;;;4.50;99.90;;;;;;5066717;28;20416;-75
2023/12/05 06:27:39;;;;;;;4.23;1.67;;;4.40;99.90;;;;;;5066442;28;20456;-75
2023/12/05 06:30:05;;;;;;;3.80;0.83;;;4.40;99.90;;;;;;5050031;28;20213;-75
2023/12/05 06:32:31;;;;;;;2.08;1.70;;;4.60;99.90;;;;;;5066657;28;20204;-75
2023/12/05 06:34:57;;;;;;;1.53;1.33;;;4.60;99.90;;;;;;5067828;28;20617;-75
2023/12/05 06:37:22;;;;;;;2.60;1.70;;;4.60;99.90;;;;;;5066119;28;20268;-75
2023/12/05 06:39:48;;;;;;;3.43;1.40;;;4.50;99.90;;;;;;5066694;28;20186;-74
2023/12/05 06:42:14;;;;;;;2.23;2.00;;;4.50;99.90;;;;;;5068548;28;20189;-74
2023/12/05 06:44:39;;;;;;;2.07;1.87;;;4.40;99.90;;;;;;5068753;28;20907;-74
2023/12/05 06:47:05;;;;;;;3.10;1.47;;;4.40;99.90;;;;;;5066917;28;20208;-75
2023/12/05 06:49:30;;;;;;;2.50;1.80;;;4.30;99.90;;;;;;5068614;28;20198;-75
2023/12/05 06:51:57;;;;;;;2.13;1.93;;;4.30;99.90;;;;;;5068612;28;20190;-73
2023/12/05 06:54:23;;;;;;;2.53;1.70;;;4.30;99.90;;;;;;5049889;28;20668;-77
2023/12/05 06:56:49;;;;;;;2.07;1.87;;;4.40;99.90;;;;;;5068359;28;20218;-75
2023/12/05 06:59:15;;;;;;;4.73;2.87;;;4.30;99.90;;;;;;5066869;28;20235;-75
2023/12/05 07:01:41;;;;;;;2.43;2.23;;;4.40;99.90;;;;;;5066702;28;20189;-73
2023/12/05 07:04:07;;;;;;;7.70;2.70;;;4.30;99.90;;;;;;5068480;28;20429;-74
2023/12/05 07:06:33;;;;;;;2.90;2.07;;;4.40;99.90;;;;;;5049908;28;20445;-73
2023/12/05 07:08:59;;;;;;;4.20;2.90;;;4.20;99.90;;;;;;5066541;28;20432;-73
2023/12/05 07:11:28;;;;;;;78.13;21.50;;;4.10;99.90;;;;;;5067875;28;20202;-72
2023/12/05 07:13:54;;;;;;;4.10;3.07;;;4.10;99.90;;;;;;5049578;28;20194;-73
2023/12/05 07:16:20;;;;;;;3.45;3.15;;;4.10;99.90;;;;;;5067672;28;20561;-75
2023/12/05 07:18:46;;;;;;;2.53;2.30;;;4.00;99.90;;;;;;5049824;28;20273;-75
2023/12/05 07:21:11;;;;;;;3.20;2.10;;;4.10;99.90;;;;;;5067706;28;20170;-75
2023/12/05 07:23:37;;;;;;;2.67;2.30;;;4.10;99.90;;;;;;5049429;28;20429;-75
2023/12/05 07:26:04;;;;;;;5.50;2.00;;;4.10;99.90;;;;;;5049438;28;20710;-75
2023/12/05 07:28:29;;;;;;;2.97;2.40;;;4.00;99.90;;;;;;5069113;28;20187;-76
2023/12/05 07:30:55;;;;;;;4.50;2.20;;;4.10;99.90;;;;;;5037441;28;20467;-75
2023/12/05 07:33:21;;;;;;;2.37;2.17;;;4.20;99.90;;;;;;5069991;28;20194;-74
2023/12/05 07:35:46;;;;;;;9.73;2.67;;;4.20;99.90;;;;;;5071698;28;20441;-75
2023/12/05 07:38:12;;;;;;;4.50;2.10;;;4.30;99.90;;;;;;5071726;28;20181;-75
2023/12/05 07:40:38;;;;;;;3.13;2.07;;;4.30;99.90;;;;;;5070581;28;20187;-75
2023/12/05 07:43:04;;;;;;;3.93;2.13;;;4.40;99.90;;;;;;5072180;28;20233;-75
2023/12/05 07:45:29;;;;;;;4.03;2.40;;;4.40;99.90;;;;;;5072141;28;20494;-74
2023/12/05 07:47:56;;;;;;;2.70;1.70;;;4.50;99.90;;;;;;5072183;28;20224;-74
2023/12/05 07:50:22;;;;;;;3.00;2.03;;;4.60;99.90;;;;;;5072291;28;20191;-75
2023/12/05 07:52:51;;;;;;;2.60;1.77;;;4.70;99.90;;;;;;5072016;28;20438;-74
2023/12/05 07:55:18;;;;;;;5.50;1.65;;;5.10;99.90;;;;;;5070497;28;20198;-75
2023/12/05 07:57:46;;;;;;;3.53;2.10;;;5.30;99.90;;;;;;5070337;28;20726;-74
2023/12/05 08:00:16;;;;;;;4.17;1.90;;;5.70;99.90;;;;;;5071434;28;20779;-74
2023/12/05 08:02:43;;;;;;;2.10;1.90;;;6.00;99.90;;;;;;5071390;28;20424;-75
2023/12/05 08:05:09;;;;;;;2.13;1.77;;;6.60;99.90;;;;;;5069944;28;20413;-75
2023/12/05 08:07:34;;;;;;;5.00;2.10;;;7.30;99.90;;;;;;5069296;28;20426;-75
2023/12/05 08:10:00;;;;;;;2.40;1.37;;;7.70;99.90;;;;;;5069455;28;20428;-75
2023/12/05 08:12:26;;;;;;;1.93;1.57;;;8.70;99.90;;;;;;5070912;28;20184;-75
2023/12/05 08:14:52;;;;;;;2.57;2.10;;;9.40;99.90;;;;;;5069548;28;20187;-74
2023/12/05 08:17:17;;;;;;;2.27;1.77;;;9.30;99.90;;;;;;5069116;28;21029;-74
2023/12/05 08:19:43;;;;;;;2.60;1.60;;;9.50;99.90;;;;;;5070996;28;20234;-75
2023/12/05 08:22:08;;;;;;;2.37;1.80;;;9.20;99.90;;;;;;5069056;28;20184;-76
2023/12/05 08:24:34;;;;;;;3.77;2.27;;;8.90;99.90;;;;;;5069300;28;20732;-75
2023/12/05 08:27:00;;;;;;;2.60;2.00;;;9.00;99.90;;;;;;5070607;28;20207;-74
2023/12/05 08:29:25;;;;;;;9.33;2.40;;;8.00;99.90;;;;;;5070550;28;20212;-75
2023/12/05 08:31:51;;;;;;;1.90;1.73;;;7.30;99.90;;;;;;5068594;28;20228;-75
2023/12/05 08:34:16;;;;;;;2.17;1.97;;;7.40;99.90;;;;;;5070014;28;20273;-74
2023/12/05 08:36:44;;;;;;;2.53;2.00;;;7.50;99.90;;;;;;5051488;28;20215;-75
2023/12/05 08:39:10;;;;;;;2.20;1.67;;;8.00;99.90;;;;;;5068265;28;20179;-75
2023/12/05 08:41:36;;;;;;;3.20;1.67;;;8.10;99.90;;;;;;5068843;28;20454;-74
2023/12/05 08:44:02;;;;;;;4.67;1.90;;;8.10;99.90;;;;;;5068587;28;20525;-75
2023/12/05 08:46:27;;;;;;;2.63;1.80;;;8.50;99.90;;;;;;5068168;28;20205;-75
2023/12/05 08:48:53;;;;;;;7.30;1.80;;;9.60;99.90;;;;;;5069583;28;20189;-74
2023/12/05 08:51:18;;;;;;;3.80;2.63;;;10.20;99.90;;;;;;5051173;28;20200;-74
2023/12/05 08:53:44;;;;;;;2.20;1.97;;;9.20;99.90;;;;;;5068257;28;20217;-74
2023/12/05 08:56:10;;;;;;;4.03;1.90;;;9.20;99.90;;;;;;5067684;28;20584;-74
2023/12/05 08:58:37;;;;;;;8.37;2.50;;;8.40;99.90;;;;;;5051075;28;20190;-74
2023/12/05 09:01:03;;;;;;;3.40;2.90;;;7.60;99.90;;;;;;5051591;28;20423;-74
2023/12/05 09:03:29;;;;;;;4.30;2.40;;;6.90;99.90;;;;;;5067938;28;20732;-73
2023/12/05 09:05:55;;;;;;;2.40;2.13;;;6.60;99.90;;;;;;5034599;28;20987;-73
2023/12/05 09:08:21;;;;;;;4.90;2.67;;;6.40;99.90;;;;;;5034627;28;20481;-73
2023/12/05 09:10:47;;;;;;;3.30;2.43;;;6.00;99.90;;;;;;5051264;28;20209;-73
2023/12/05 09:13:16;;;;;;;5.20;2.33;;;5.90;99.90;;;;;;5067822;28;20951;-72
2023/12/05 09:15:41;;;;;;;3.63;2.60;;;5.70;99.90;;;;;;5034492;28;20446;-74
2023/12/05 09:18:07;;;;;;;3.73;2.80;;;5.60;99.90;;;;;;5067571;28;20432;-74
2023/12/05 09:20:33;;;;;;;4.30;3.33;;;5.40;99.90;;;;;;5068994;28;20183;-75
2023/12/05 09:22:58;;;;;;;5.00;3.40;;;5.50;99.90;;;;;;5069116;28;20258;-74
2023/12/05 09:25:24;;;;;;;3.83;2.80;;;5.70;99.90;;;;;;5068313;28;20249;-75
2023/12/05 09:27:49;;;;;;;7.00;4.20;;;6.20;99.90;;;;;;5068640;28;20949;-74
2023/12/05 09:30:15;;;;;;;4.13;3.10;;;6.80;99.90;;;;;;5068735;28;20187;-74
2023/12/05 09:32:40;;;;;;;3.47;2.57;;;7.50;99.90;;;;;;5067293;28;20191;-74
2023/12/05 09:35:06;;;;;;;6.33;3.33;;;8.40;99.90;;;;;;5068612;28;20649;-74
2023/12/05 09:37:32;;;;;;;4.37;2.90;;;8.70;99.90;;;;;;5067091;28;20226;-74
2023/12/05 09:39:58;;;;;;;6.20;2.50;;;9.40;99.90;;;;;;5068381;28;20426;-73
2023/12/05 09:42:25;;;;;;;6.60;3.17;;;10.10;99.90;;;;;;5068653;28;20703;-74
2023/12/05 09:44:53;;;;;;;4.83;2.70;;;10.30;99.90;;;;;;5066850;28;20424;-73
2023/12/05 09:47:20;;;;;;;3.63;2.60;;;11.30;99.90;;;;;;5068617;28;20590;-73
2023/12/05 09:49:46;;;;;;;4.60;2.97;;;11.60;99.90;;;;;;5068390;28;20416;-74
2023/12/05 09:52:12;;;;;;;5.63;2.93;;;12.60;99.90;;;;;;5068395;28;21047;-74
2023/12/05 09:54:42;;;;;;;2.73;2.40;;;11.80;99.90;;;;;;5066714;28;20579;-73
2023/12/05 09:57:08;;;;;;;2.60;1.93;;;12.60;99.70;;;;;;5067351;28;20487;-75
2023/12/05 09:59:34;;;;;;;2.93;2.40;;;12.50;98.70;;;;;;5068745;28;20555;-73
2023/12/05 10:02:03;;;;;;;5.67;2.60;;;13.00;98.30;;;;;;5067365;28;20755;-74
2023/12/05 10:04:32;;;;;;;4.50;2.30;;;13.60;96.20;;;;;;5068793;28;20423;-74
2023/12/05 10:06:59;;;;;;;2.80;2.27;;;14.30;94.20;;;;;;5067009;28;20478;-73
2023/12/05 10:09:27;;;;;;;3.63;1.70;;;15.20;93.50;;;;;;5068638;28;20435;-73
2023/12/05 10:11:53;;;;;;;3.90;2.77;;;16.10;92.80;;;;;;5068869;28;21107;-74
2023/12/05 10:14:19;;;;;;;4.67;2.80;;;15.80;92.00;;;;;;5067187;28;20432;-74
2023/12/05 10:16:44;;;;;;;6.37;3.90;;;14.90;90.90;;;;;;5066822;28;20865;-75
2023/12/05 10:19:12;;;;;;;2.90;2.60;;;15.80;91.80;;;;;;5066925;28;20412;-74
2023/12/05 10:21:38;;;;;;;4.10;2.77;;;15.10;90.00;;;;;;5068149;28;20426;-73
2023/12/05 10:24:04;;;;;;;2.53;2.17;;;13.60;92.40;;;;;;5066878;28;20423;-75
2023/12/05 10:26:30;;;;;;;2.13;1.80;;;10.80;95.00;;;;;;5068047;28;20207;-74
2023/12/05 10:28:56;;;;;;;3.27;2.60;;;9.40;99.90;;;;;;5066347;28;20482;-74
2023/12/05 10:31:23;;;;;;;5.80;2.10;;;9.30;99.90;;;;;;5067970;28;20260;-74
2023/12/05 10:33:49;;;;;;;2.50;2.30;;;9.20;99.90;;;;;;5067672;28;20482;-74
2023/12/05 10:36:16;;;;;;;2.50;2.30;;;8.60;99.90;;;;;;5065271;28;20532;-75
2023/12/05 10:38:46;;;;;;;2.07;1.87;;;9.20;99.90;;;;;;5067147;28;20898;-75
2023/12/05 10:41:20;;;;;;;2.43;1.47;;;8.80;99.90;;;;;;5049287;28;20432;-75
2023/12/05 10:43:50;;;;;;;3.83;1.67;;;9.90;99.90;;;;;;5067304;28;20973;-74
2023/12/05 10:46:16;;;;;;;3.53;2.10;;;9.20;99.90;;;;;;5066795;28;20435;-74
2023/12/05 10:48:44;;;;;;;4.40;1.70;;;10.20;99.90;;;;;;5066816;28;20430;-74
2023/12/05 10:51:10;;;;;;;1.90;1.40;;;11.20;99.90;;;;;;5066677;28;20421;-74
2023/12/05 10:53:36;;;;;;;1.93;1.67;;;12.00;99.90;;;;;;5065448;28;20423;-74
2023/12/05 10:56:15;;;;;;;2.37;1.23;;;12.40;99.90;;;;;;5066601;28;20226;-74
2023/12/05 10:58:42;;;;;;;2.57;1.70;;;12.00;98.50;;;;;;5066674;28;20441;-74
2023/12/05 11:01:11;;;;;;;3.40;1.80;;;11.10;99.90;;;;;;5067256;28;20422;-74
2023/12/05 11:03:38;;;;;;;1.87;1.40;;;11.30;99.90;;;;;;5066292;28;21192;-75
2023/12/05 11:06:04;;;;;;;2.73;1.67;;;10.30;99.90;;;;;;5066567;28;20448;-75
2023/12/05 11:08:31;;;;;;;3.40;2.00;;;9.30;99.90;;;;;;5066383;28;20431;-76
2023/12/05 11:10:58;;;;;;;1.73;1.27;;;9.30;99.90;;;;;;5066545;28;20934;-75
2023/12/05 11:13:24;;;;;;;4.90;1.93;;;10.20;99.90;;;;;;5066664;28;20865;-75
2023/12/05 11:15:52;;;;;;;2.37;1.37;;;11.10;99.90;;;;;;5048311;28;20543;-74
2023/12/05 11:18:32;;;;;;;2.90;1.60;;;12.00;99.90;;;;;;5066588;28;20527;-75
2023/12/05 11:21:22;;;;;;;5.07;1.93;;;11.40;99.90;;;;;;5065177;28;20416;-74
2023/12/05 11:24:10;;;;;;;1.63;1.03;;;11.60;99.90;;;;;;5066616;28;20836;-74
2023/12/05 11:27:00;;;;;;;3.20;0.90;;;12.30;99.10;;;;;;5066535;28;20962;-74
2023/12/05 11:29:48;;;;;;;1.23;0.90;;;12.80;99.00;;;;;;5068388;28;20956;-73
2023/12/05 11:32:35;;;;;;;1.37;1.27;;;10.80;98.70;;;;;;5066463;28;20472;-75
2023/12/05 11:35:12;;;;;;;4.07;1.53;;;11.30;99.90;;;;;;5066821;28;20420;-73
2023/12/05 11:37:52;;;;;;;2.70;1.33;;;10.70;99.90;;;;;;5066333;28;20516;-74
2023/12/05 11:40:17;;;;;;;1.67;1.20;;;11.60;99.90;;;;;;5066498;28;20926;-73
2023/12/05 11:43:11;;;;;;;1.53;1.00;;;10.40;99.90;;;;;;5066591;28;20424;-75
2023/12/05 11:45:41;;;;;;;3.53;1.20;;;10.50;99.90;;;;;;5066135;28;20277;-73
2023/12/05 11:48:13;;;;;;;1.40;0.97;;;10.50;99.90;;;;;;5066285;28;20422;-74
2023/12/05 11:50:43;;;;;;;0.90;0.77;;;10.90;99.90;;;;;;5064805;28;20428;-74
2023/12/05 11:53:11;;;;;;;1.43;0.90;;;10.60;99.90;;;;;;5066236;28;20444;-74
2023/12/05 11:55:45;;;;;;;1.50;1.07;;;10.20;99.90;;;;;;5064338;28;20489;-75
2023/12/05 11:58:35;;;;;;;2.63;1.40;;;9.40;99.90;;;;;;5066236;28;20426;-75
2023/12/05 12:01:02;;;;;;;1.57;0.90;;;9.10;99.90;;;;;;5066591;28;20415;-74
2023/12/05 12:03:32;;;;;;;4.33;2.50;;;8.90;99.90;;;;;;5066153;28;20414;-74
2023/12/05 12:06:02;;;;;;;1.37;0.83;;;8.80;99.90;;;;;;5066149;28;20958;-74
2023/12/05 12:08:29;;;;;;;1.30;1.00;;;8.40;99.90;;;;;;5048107;28;20436;-75
2023/12/05 12:10:56;;;;;;;1.30;1.00;;;8.20;99.90;;;;;;5065182;28;20907;-75
2023/12/05 12:13:21;;;;;;;16.07;8.57;;;8.10;99.90;;;;;;5066980;28;20421;-75
2023/12/05 12:15:47;;;;;;;8.23;2.33;;;7.90;99.90;;;;;;5049947;28;20903;-75
2023/12/05 12:18:13;;;;;;;1.53;0.80;;;7.90;99.90;;;;;;5070266;28;20172;-75
2023/12/05 12:20:38;;;;;;;2.90;1.00;;;7.80;99.90;;;;;;5069922;28;20178;-75
2023/12/05 12:23:04;;;;;;;4.83;1.70;;;7.60;99.90;;;;;;5051567;28;20194;-75
2023/12/05 12:25:30;;;;;;;1.17;1.00;;;7.70;99.90;;;;;;5069643;28;20205;-74
2023/12/05 12:27:56;;;;;;;1.80;0.90;;;7.30;99.90;;;;;;5069393;28;20471;-74
2023/12/05 12:30:22;;;;;;;3.47;1.23;;;7.20;99.90;;;;;;5069493;28;20233;-75
2023/12/05 12:32:56;;;;;;;1.40;1.03;;;7.20;99.90;;;;;;5051325;28;20192;-75
2023/12/05 12:35:22;;;;;;;2.60;1.30;;;7.10;99.90;;;;;;5069676;28;20417;-77
2023/12/05 12:37:51;;;;;;;4.30;1.80;;;7.10;99.90;;;;;;5069710;28;20464;-74
2023/12/05 12:40:18;;;;;;;3.03;1.60;;;7.00;99.90;;;;;;5068128;28;20428;-75
2023/12/05 12:42:51;;;;;;;2.33;1.10;;;6.90;99.90;;;;;;5069714;28;20409;-75
2023/12/05 12:45:17;;;;;;;1.70;1.40;;;6.80;99.90;;;;;;5068066;28;20520;-74
2023/12/05 12:47:43;;;;;;;1.50;1.23;;;6.80;99.90;;;;;;5069427;28;20501;-78
2023/12/05 12:50:09;;;;;;;3.60;1.90;;;6.80;99.90;;;;;;5067988;28;20193;-73
2023/12/05 12:52:34;;;;;;;3.17;1.80;;;6.80;99.90;;;;;;5051444;28;20277;-74
2023/12/05 12:55:00;;;;;;;2.63;1.77;;;6.90;99.90;;;;;;5069218;28;20437;-75